Aitkin, MN

1:59 PM CDT on September 19, 2014 (GMT -0500)
Aitkin Municipal / Steve Kurtz Field | Change Station
CLOSE
Current Station
Airport
Location: Aitkin,
Elevation: 1204 ft
Nearby Weather Stations

Elev 1204 ft 46.55 °N, 93.68 °W | Updated 25 minutes ago

Overcast
Overcast
63 °F
Feels Like 63 °F
N
12
Wind Variable Wind from South
Gusts 17 mph

Today
High -- | Low -- °F
--% Chance of Precip.
Yesterday
High -- | Low -- °F
Precip. -- in
6:57 AM 7:18 PM
Waning Crescent, 17% visible
Pressure 29.68 in
Visibility 7.0 miles
Clouds Overcast 800 ft
Dew Point 57 °F
Humidity 82%
Rainfall 0.00 in
Snow Depth Not available.
UV 2 out of 12
Pollen 3.30 out of 12
Air Quality Not available.
Flu Activity Not available.
METAR KAIT 191834Z AUTO 18010G15KT 7SM OVC008 17/14 A2968 RMK AO2

More Conditions Fewer Conditions

Pressure 29.68 in
Visibility 7.0 miles
Clouds Overcast 800 ft
Dew Point 57 °F
Humidity 82%
Rainfall 0.00 in
Snow Depth Not available.
UV 2 out of 12
Pollen 3.30 out of 12
Air Quality Not available.
Flu Activity Not available.
METAR KAIT 191834Z AUTO 18010G15KT 7SM OVC008 17/14 A2968 RMK AO2

More Conditions Fewer Conditions

10-Day Weather Forecast

Almanac

Astronomy

Sep. 19, 2014 Rise Set
Actual Time 6:57 AM CDT 7:18 PM CDT
Civil Twilight 6:27 AM CDT 7:48 PM CDT
Nautical Twilight 5:51 AM CDT 8:24 PM CDT
Astronomical Twilight 5:15 AM CDT 9:00 PM CDT
Moon 2:31 AM CDT 4:58 PM CDT
Length of Visible Light 13h 20m
Length of Day
12h 20m
Tomorrow will be 3m 17s shorter.
Waning Crescent, 17% of the Moon is Illuminated
Today
Waning Crescent
Sep 24
New
Oct 1
First Quarter
Oct 8
Full
Oct 15
Last Quarter

Today's Extremes

State Highs State Lows

Community

WunderPhotos

Upload Photos

1,754,680 photos uploaded!

WunderBlogs® & News

Nearby

Snow Depth

Station Depth Elevation
No new snow has been reported.

Earthquake Activity

City Distance Mag. Time & Date
No recent earthquake activity has been reported nearby.
Minimum magnitude displayed is 2.5.

Coastal Water Temperatures

Place Temperature
No Stations Reporting

Nearby Weather Stations